createdAt,value
2023-01-27T00:00:16.398Z,4.82
2023-01-27T00:01:16.336Z,3.53
2023-01-27T00:02:16.320Z,4.18
2023-01-27T00:03:16.310Z,5.02
2023-01-27T00:04:16.214Z,4.33
2023-01-27T00:05:16.167Z,4.59
2023-01-27T00:06:16.137Z,4.21
2023-01-27T00:07:16.096Z,5.09
2023-01-27T00:08:16.056Z,4.01
2023-01-27T00:09:16.025Z,4.22
2023-01-27T00:10:15.984Z,4.39
2023-01-27T00:11:15.948Z,4.43
2023-01-27T00:12:15.918Z,4.43
2023-01-27T00:13:15.877Z,4.98
2023-01-27T00:14:15.846Z,4.69
2023-01-27T00:15:15.838Z,4.36
2023-01-27T00:16:15.852Z,4.38
2023-01-27T00:17:15.766Z,4.34
2023-01-27T00:18:15.714Z,4.07
2023-01-27T00:19:15.682Z,3.94
2023-01-27T00:20:15.666Z,4.06
2023-01-27T00:21:15.611Z,4.61
2023-01-27T00:22:15.583Z,4.58
2023-01-27T00:23:15.548Z,4.63
2023-01-27T00:24:15.540Z,4.44
2023-01-27T00:25:15.475Z,4.52
2023-01-27T00:26:15.442Z,4.27
2023-01-27T00:27:15.415Z,3.80
2023-01-27T00:28:15.393Z,4.26
2023-01-27T00:29:15.333Z,4.84
2023-01-27T00:30:15.310Z,4.26
2023-01-27T00:31:15.438Z,4.82
2023-01-27T00:32:15.243Z,4.15
2023-01-27T00:33:15.218Z,3.83
2023-01-27T00:34:15.187Z,4.47
2023-01-27T00:35:15.152Z,3.79
2023-01-27T00:36:15.117Z,4.64
2023-01-27T00:37:15.064Z,4.49
2023-01-27T00:38:15.024Z,4.83
2023-01-27T00:39:14.975Z,4.43
2023-01-27T00:40:15.249Z,4.15
2023-01-27T00:41:14.879Z,3.98
2023-01-27T00:42:14.839Z,4.31
2023-01-27T00:43:14.808Z,4.61
2023-01-27T00:44:14.793Z,4.79
2023-01-27T00:45:14.751Z,4.14
2023-01-27T00:46:14.746Z,4.10
2023-01-27T00:47:14.659Z,4.48
2023-01-27T00:48:14.643Z,4.56
2023-01-27T00:49:14.595Z,4.34
2023-01-27T00:50:14.772Z,4.48
2023-01-27T00:51:14.484Z,4.57
2023-01-27T00:52:14.455Z,3.87
2023-01-27T00:53:14.424Z,4.28
2023-01-27T00:54:14.416Z,4.76
2023-01-27T00:55:14.363Z,4.72
2023-01-27T00:56:14.328Z,4.12
2023-01-27T00:57:14.279Z,3.90
2023-01-27T00:58:14.251Z,4.16
2023-01-27T00:59:14.226Z,4.44
2023-01-27T01:00:14.452Z,4.23
2023-01-27T01:01:14.151Z,3.86
2023-01-27T01:02:14.117Z,4.93
2023-01-27T01:03:14.062Z,4.06
2023-01-27T01:04:14.012Z,4.05
2023-01-27T01:05:13.967Z,4.60
2023-01-27T01:06:13.953Z,4.01
2023-01-27T01:07:13.905Z,4.20
2023-01-27T01:08:13.873Z,4.40
2023-01-27T01:09:13.829Z,4.83
2023-01-27T01:10:14.031Z,3.71
2023-01-27T01:11:13.757Z,4.24
2023-01-27T01:12:13.727Z,4.05
2023-01-27T01:13:13.715Z,4.47
2023-01-27T01:14:13.611Z,4.09
2023-01-27T01:15:13.567Z,4.52
2023-01-27T01:16:13.599Z,3.71
2023-01-27T01:17:13.518Z,4.15
2023-01-27T01:18:13.440Z,4.09
2023-01-27T01:19:13.403Z,4.08
2023-01-27T01:20:13.697Z,4.25
2023-01-27T01:21:13.366Z,4.66
2023-01-27T01:22:13.327Z,4.12
2023-01-27T01:23:13.302Z,4.68
2023-01-27T01:24:13.344Z,4.24
2023-01-27T01:25:13.230Z,4.04
2023-01-27T01:26:13.230Z,4.05
2023-01-27T01:27:13.165Z,4.33
2023-01-27T01:28:13.151Z,4.49
2023-01-27T01:29:13.127Z,3.98
2023-01-27T01:30:13.407Z,4.03
2023-01-27T01:31:13.068Z,4.02
2023-01-27T01:32:13.029Z,3.53
2023-01-27T01:33:13.028Z,4.47
2023-01-27T01:34:12.957Z,4.48
2023-01-27T01:35:13.005Z,3.84
2023-01-27T01:36:12.892Z,4.14
2023-01-27T01:37:12.826Z,4.29
2023-01-27T01:38:12.772Z,3.54
2023-01-27T01:39:12.713Z,4.58
2023-01-27T01:40:12.858Z,4.05
2023-01-27T01:41:12.597Z,4.41
2023-01-27T01:42:12.575Z,4.11
2023-01-27T01:43:12.537Z,3.96
2023-01-27T01:44:12.493Z,4.32
2023-01-27T01:45:12.468Z,3.86
2023-01-27T01:46:12.509Z,3.82
2023-01-27T01:47:12.429Z,4.36
2023-01-27T01:48:12.386Z,4.09
2023-01-27T01:49:12.364Z,4.55
2023-01-27T01:50:12.610Z,4.82
2023-01-27T01:51:12.285Z,4.28
2023-01-27T01:52:12.245Z,3.74
2023-01-27T01:53:12.215Z,4.07
2023-01-27T01:54:12.181Z,4.64
2023-01-27T01:55:12.416Z,3.50
2023-01-27T01:56:12.134Z,4.13
2023-01-27T01:57:12.104Z,4.08
2023-01-27T01:58:12.081Z,4.33
2023-01-27T01:59:12.050Z,3.85
2023-01-27T02:00:12.275Z,4.11
2023-01-27T02:01:11.959Z,4.08
2023-01-27T02:02:11.943Z,4.43
2023-01-27T02:03:11.883Z,4.21
2023-01-27T02:04:11.838Z,4.14
2023-01-27T02:05:12.172Z,4.32
2023-01-27T02:06:11.747Z,4.43
2023-01-27T02:07:11.714Z,3.89
2023-01-27T02:08:11.644Z,4.48
2023-01-27T02:09:11.598Z,4.41
2023-01-27T02:10:11.927Z,3.91
2023-01-27T02:11:11.529Z,4.11
2023-01-27T02:12:11.529Z,3.80
2023-01-27T02:13:11.485Z,4.85
2023-01-27T02:14:11.455Z,3.91
2023-01-27T02:15:11.907Z,4.01
2023-01-27T03:58:07.194Z,3.80
2023-01-27T03:59:07.128Z,4.00
2023-01-27T04:00:07.076Z,3.86
2023-01-27T04:01:07.060Z,3.71
2023-01-27T04:02:06.969Z,4.07
2023-01-27T04:03:06.931Z,4.32
2023-01-27T04:04:06.858Z,4.34
2023-01-27T04:05:06.802Z,4.27
2023-01-27T04:06:06.766Z,4.11
2023-01-27T04:07:06.698Z,4.26
2023-01-27T04:08:06.660Z,4.37
2023-01-27T04:09:06.594Z,4.08
2023-01-27T04:10:06.511Z,3.60
2023-01-27T04:11:06.478Z,3.64
2023-01-27T04:12:06.411Z,4.10
2023-01-27T04:13:06.332Z,4.01
2023-01-27T04:14:06.292Z,3.72
2023-01-27T04:15:06.263Z,3.83
2023-01-27T04:16:06.225Z,4.31
2023-01-27T04:17:06.150Z,4.06
2023-01-27T04:18:06.125Z,3.94
2023-01-27T04:19:06.058Z,4.01
2023-01-27T04:20:06.149Z,3.79
2023-01-27T04:21:05.982Z,3.63
2023-01-27T04:22:05.950Z,3.72
2023-01-27T04:23:05.922Z,3.81
2023-01-27T04:24:05.920Z,3.63
2023-01-27T04:25:05.869Z,4.46
2023-01-27T04:26:05.836Z,4.34
2023-01-27T04:27:05.819Z,4.27
2023-01-27T04:28:05.793Z,4.54
2023-01-27T04:29:05.762Z,3.86
2023-01-27T04:30:05.740Z,4.16
2023-01-27T04:31:05.799Z,4.12
2023-01-27T04:32:05.689Z,3.96
2023-01-27T04:33:05.645Z,3.82
2023-01-27T04:34:05.621Z,3.44
2023-01-27T04:35:05.603Z,4.37
2023-01-27T04:36:05.557Z,4.15
2023-01-27T04:37:05.586Z,4.13
2023-01-27T04:38:05.509Z,4.03
2023-01-27T04:39:05.469Z,3.63
2023-01-27T04:40:05.432Z,3.67
2023-01-27T04:41:05.393Z,4.13
2023-01-27T04:42:05.362Z,4.37
2023-01-27T04:43:05.323Z,3.88
2023-01-27T04:44:05.291Z,4.10
2023-01-27T04:45:05.262Z,3.45
2023-01-27T04:46:05.260Z,4.02
2023-01-27T04:47:05.187Z,3.65
2023-01-27T04:48:05.149Z,3.92
2023-01-27T04:49:05.134Z,3.52
2023-01-27T04:50:05.112Z,4.33
2023-01-27T04:51:05.085Z,3.84
2023-01-27T04:52:05.042Z,3.69
2023-01-27T04:53:04.999Z,3.90
2023-01-27T04:54:04.991Z,3.47
2023-01-27T04:55:04.936Z,3.26
2023-01-27T04:56:04.892Z,4.08
2023-01-27T04:57:04.874Z,3.87
2023-01-27T04:58:04.824Z,3.68
2023-01-27T04:59:04.784Z,3.95
2023-01-27T05:00:04.746Z,3.74
2023-01-27T05:01:04.715Z,3.96
2023-01-27T05:02:04.876Z,3.77
2023-01-27T05:03:04.673Z,3.98
2023-01-27T05:04:04.621Z,3.96
2023-01-27T05:05:04.621Z,4.26
2023-01-27T05:06:04.539Z,3.99
2023-01-27T05:07:04.508Z,3.83
2023-01-27T05:08:04.488Z,4.05
2023-01-27T05:09:04.441Z,4.38
2023-01-27T05:10:04.404Z,3.87
2023-01-27T05:11:04.360Z,3.59
2023-01-27T05:12:04.314Z,4.10
2023-01-27T05:13:04.277Z,3.63
2023-01-27T05:14:04.245Z,4.14
2023-01-27T05:15:04.218Z,3.08
2023-01-27T05:16:04.218Z,3.65
2023-01-27T05:17:04.189Z,4.10
2023-01-27T05:18:04.154Z,3.76
2023-01-27T05:19:04.051Z,3.97
2023-01-27T05:20:04.090Z,4.69
2023-01-27T05:21:03.987Z,3.54
2023-01-27T05:22:03.969Z,4.05
2023-01-27T05:23:03.911Z,4.38
2023-01-27T05:24:03.955Z,4.29
2023-01-27T05:25:03.857Z,3.82
2023-01-27T05:26:03.803Z,3.71
2023-01-27T05:27:03.755Z,4.01
2023-01-27T05:28:03.736Z,3.22
2023-01-27T05:29:03.673Z,4.04
2023-01-27T05:30:03.638Z,4.07
2023-01-27T05:31:03.666Z,4.37
2023-01-27T05:32:03.550Z,4.18
2023-01-27T05:33:03.534Z,3.55
2023-01-27T05:34:03.577Z,4.07
2023-01-27T05:35:03.455Z,3.88
2023-01-27T05:36:03.407Z,4.08
2023-01-27T05:37:03.353Z,3.50
2023-01-27T05:38:03.315Z,4.53
2023-01-27T05:39:03.271Z,4.30
2023-01-27T05:40:03.244Z,3.83
2023-01-27T05:41:03.193Z,3.84
2023-01-27T05:42:03.164Z,3.21
2023-01-27T05:43:03.116Z,4.04
2023-01-27T05:44:03.067Z,4.04
2023-01-27T05:45:03.023Z,4.23
2023-01-27T05:46:02.977Z,4.01
2023-01-27T05:47:02.919Z,4.25
2023-01-27T05:48:02.889Z,4.36
2023-01-27T05:49:02.842Z,3.97
2023-01-27T05:50:02.792Z,3.69
2023-01-27T05:51:02.758Z,4.37
2023-01-27T05:52:02.710Z,4.12
2023-01-27T05:53:02.659Z,3.90
2023-01-27T05:54:02.625Z,4.02
2023-01-27T05:55:02.568Z,3.99
2023-01-27T05:56:02.563Z,3.99
2023-01-27T05:57:02.534Z,3.95
2023-01-27T05:58:02.465Z,3.95
2023-01-27T05:59:02.406Z,4.09
2023-01-27T06:00:02.373Z,4.06
2023-01-27T06:01:02.330Z,4.49
2023-01-27T06:02:02.399Z,3.73
2023-01-27T06:03:02.289Z,3.94
2023-01-27T06:04:02.210Z,3.60
2023-01-27T06:05:02.173Z,4.41
2023-01-27T06:06:02.120Z,4.21
2023-01-27T06:07:02.080Z,3.80
2023-01-27T06:08:02.055Z,4.26
2023-01-27T06:09:02.030Z,3.82
2023-01-27T06:10:01.977Z,3.64
2023-01-27T06:11:01.966Z,4.00
2023-01-27T06:12:01.911Z,4.33
2023-01-27T06:13:01.879Z,4.14
2023-01-27T06:14:01.893Z,3.96
2023-01-27T06:15:01.815Z,3.76
2023-01-27T06:16:01.852Z,4.11
2023-01-27T06:17:01.746Z,3.86
2023-01-27T06:18:01.703Z,3.53
2023-01-27T06:19:01.675Z,3.93
2023-01-27T06:20:01.620Z,4.18
2023-01-27T06:21:01.582Z,4.39
2023-01-27T06:22:01.547Z,4.17
2023-01-27T06:23:01.511Z,4.29
2023-01-27T06:24:01.489Z,4.70
2023-01-27T06:25:01.450Z,6.34
2023-01-27T06:26:01.423Z,6.25
2023-01-27T07:03:59.358Z,8.10
2023-01-27T07:21:58.490Z,7.01
2023-01-27T07:22:58.447Z,7.24
2023-01-27T07:23:58.410Z,6.78
2023-01-27T07:24:58.328Z,6.94
2023-01-27T07:26:00.807Z,6.60
2023-01-27T07:26:58.396Z,6.82
2023-01-27T07:27:58.343Z,6.72
2023-01-27T07:28:58.259Z,6.99
2023-01-27T07:29:58.229Z,6.71
2023-01-27T07:30:58.106Z,6.73
2023-01-27T07:31:58.050Z,6.62
2023-01-27T07:32:57.942Z,6.99
2023-01-27T07:33:57.862Z,6.67
2023-01-27T07:34:57.844Z,6.89
2023-01-27T07:35:57.669Z,6.88
2023-01-27T07:36:57.584Z,6.21
2023-01-27T07:37:57.490Z,6.83
2023-01-27T07:38:57.426Z,5.69
2023-01-27T07:39:57.305Z,7.16
2023-01-27T07:40:57.203Z,6.93
2023-01-27T07:41:57.110Z,5.75
2023-01-27T07:42:57.013Z,5.88
2023-01-27T07:43:56.921Z,6.30
2023-01-27T07:44:56.827Z,6.12
2023-01-27T07:45:56.871Z,7.39
2023-01-27T07:46:56.645Z,5.67
2023-01-27T07:47:56.538Z,6.06
2023-01-27T07:48:56.458Z,6.70
2023-01-27T07:49:56.374Z,6.10
2023-01-27T07:50:56.280Z,6.29
2023-01-27T07:53:55.986Z,7.13
2023-01-27T07:54:55.873Z,6.77
2023-01-27T07:55:55.787Z,7.18
2023-01-27T07:56:55.676Z,7.20
2023-01-27T07:57:55.570Z,7.91
